sensor_id;sensor_type;location;lat;lon;timestamp;P1;durP1;ratioP1;P2;durP2;ratioP2
74981;SDS011;63532;50.766;18.944;2023-04-24T04:40:55;13.85;;;4.78;;
74981;SDS011;63532;50.766;18.944;2023-04-24T04:44:13;12.70;;;5.85;;
74981;SDS011;63532;50.766;18.944;2023-04-24T04:47:17;15.40;;;6.50;;
74981;SDS011;63532;50.766;18.944;2023-04-24T04:50:27;11.95;;;6.28;;
74981;SDS011;63532;50.766;18.944;2023-04-24T04:53:36;14.75;;;6.40;;
74981;SDS011;63532;50.766;18.944;2023-04-24T04:56:43;16.65;;;7.75;;
74981;SDS011;63532;50.766;18.944;2023-04-24T04:59:47;16.75;;;7.18;;
74981;SDS011;63532;50.766;18.944;2023-04-24T05:03:04;14.18;;;5.95;;
74981;SDS011;63532;50.766;18.944;2023-04-24T05:06:23;12.73;;;6.97;;
74981;SDS011;63532;50.766;18.944;2023-04-24T05:09:29;19.45;;;7.63;;
74981;SDS011;63532;50.766;18.944;2023-04-24T05:12:38;15.70;;;7.65;;
74981;SDS011;63532;50.766;18.944;2023-04-24T05:15:46;19.13;;;9.05;;
74981;SDS011;63532;50.766;18.944;2023-04-24T05:18:51;23.65;;;8.88;;
74981;SDS011;63532;50.766;18.944;2023-04-24T05:22:01;15.50;;;7.63;;
74981;SDS011;63532;50.766;18.944;2023-04-24T05:25:14;15.77;;;6.53;;
74981;SDS011;63532;50.766;18.944;2023-04-24T05:28:27;17.08;;;8.05;;
74981;SDS011;63532;50.766;18.944;2023-04-24T05:31:44;20.73;;;8.07;;
74981;SDS011;63532;50.766;18.944;2023-04-24T05:34:49;13.77;;;6.55;;
74981;SDS011;63532;50.766;18.944;2023-04-24T05:37:54;14.23;;;6.22;;
74981;SDS011;63532;50.766;18.944;2023-04-24T05:41:08;15.75;;;6.47;;
74981;SDS011;63532;50.766;18.944;2023-04-24T05:44:14;12.88;;;5.57;;
74981;SDS011;63532;50.766;18.944;2023-04-24T05:47:19;12.68;;;4.47;;
74981;SDS011;63532;50.766;18.944;2023-04-24T05:50:25;12.40;;;5.70;;
74981;SDS011;63532;50.766;18.944;2023-04-24T05:53:30;8.18;;;4.05;;
74981;SDS011;63532;50.766;18.944;2023-04-24T05:56:34;12.02;;;4.78;;
74981;SDS011;63532;50.766;18.944;2023-04-24T05:59:42;4.30;;;2.50;;
74981;SDS011;63532;50.766;18.944;2023-04-24T06:02:48;7.72;;;3.03;;
74981;SDS011;63532;50.766;18.944;2023-04-24T06:05:55;3.47;;;1.90;;
74981;SDS011;63532;50.766;18.944;2023-04-24T06:09:00;5.97;;;2.10;;
74981;SDS011;63532;50.766;18.944;2023-04-24T06:12:05;3.83;;;1.83;;
74981;SDS011;63532;50.766;18.944;2023-04-24T06:15:28;6.03;;;1.73;;
74981;SDS011;63532;50.766;18.944;2023-04-24T06:18:47;3.93;;;1.63;;
74981;SDS011;63532;50.766;18.944;2023-04-24T06:21:54;2.28;;;1.48;;
74981;SDS011;63532;50.766;18.944;2023-04-24T06:24:59;4.07;;;1.63;;
74981;SDS011;63532;50.766;18.944;2023-04-24T06:28:03;4.75;;;1.80;;
74981;SDS011;63532;50.766;18.944;2023-04-24T06:31:10;3.17;;;1.60;;
74981;SDS011;63532;50.766;18.944;2023-04-24T06:34:14;2.85;;;1.30;;
74981;SDS011;63532;50.766;18.944;2023-04-24T06:37:18;2.15;;;1.40;;
74981;SDS011;63532;50.766;18.944;2023-04-24T06:40:23;2.65;;;1.58;;
74981;SDS011;63532;50.766;18.944;2023-04-24T06:43:28;2.78;;;1.65;;
74981;SDS011;63532;50.766;18.944;2023-04-24T06:46:34;2.95;;;1.90;;
74981;SDS011;63532;50.766;18.944;2023-04-24T06:49:41;2.85;;;1.40;;
74981;SDS011;63532;50.766;18.944;2023-04-24T06:52:47;5.25;;;1.35;;
74981;SDS011;63532;50.766;18.944;2023-04-24T06:55:52;3.60;;;1.63;;
74981;SDS011;63532;50.766;18.944;2023-04-24T06:58:56;1.92;;;1.30;;
74981;SDS011;63532;50.766;18.944;2023-04-24T07:02:03;4.32;;;1.58;;
74981;SDS011;63532;50.766;18.944;2023-04-24T07:05:07;4.05;;;1.45;;
74981;SDS011;63532;50.766;18.944;2023-04-24T07:08:13;3.15;;;1.85;;
74981;SDS011;63532;50.766;18.944;2023-04-24T07:11:19;5.60;;;1.77;;
74981;SDS011;63532;50.766;18.944;2023-04-24T07:14:24;2.92;;;1.63;;
74981;SDS011;63532;50.766;18.944;2023-04-24T07:17:30;5.32;;;1.92;;
74981;SDS011;63532;50.766;18.944;2023-04-24T07:20:35;4.95;;;1.70;;
74981;SDS011;63532;50.766;18.944;2023-04-24T07:23:43;3.53;;;1.60;;
74981;SDS011;63532;50.766;18.944;2023-04-24T07:26:54;3.25;;;1.50;;
74981;SDS011;63532;50.766;18.944;2023-04-24T07:29:59;4.60;;;1.60;;
74981;SDS011;63532;50.766;18.944;2023-04-24T07:33:05;2.72;;;1.52;;
74981;SDS011;63532;50.766;18.944;2023-04-24T07:36:09;4.57;;;1.70;;
74981;SDS011;63532;50.766;18.944;2023-04-24T07:39:19;1.77;;;1.20;;
74981;SDS011;63532;50.766;18.944;2023-04-24T07:42:24;2.83;;;1.75;;
74981;SDS011;63532;50.766;18.944;2023-04-24T07:45:28;3.58;;;1.83;;
74981;SDS011;63532;50.766;18.944;2023-04-24T07:48:34;4.43;;;1.65;;
74981;SDS011;63532;50.766;18.944;2023-04-24T07:51:45;4.82;;;1.67;;
74981;SDS011;63532;50.766;18.944;2023-04-24T08:41:57;2.17;;;1.25;;
74981;SDS011;63532;50.766;18.944;2023-04-24T08:45:10;3.80;;;1.67;;
74981;SDS011;63532;50.766;18.944;2023-04-24T08:48:16;2.35;;;1.60;;
74981;SDS011;63532;50.766;18.944;2023-04-24T08:51:32;2.85;;;1.45;;
74981;SDS011;63532;50.766;18.944;2023-04-24T08:54:39;2.60;;;1.30;;
74981;SDS011;63532;50.766;18.944;2023-04-24T08:57:49;10.07;;;2.53;;
74981;SDS011;63532;50.766;18.944;2023-04-24T09:00:57;8.63;;;1.75;;
74981;SDS011;63532;50.766;18.944;2023-04-24T09:04:06;2.58;;;1.63;;
74981;SDS011;63532;50.766;18.944;2023-04-24T09:07:16;3.25;;;1.63;;
74981;SDS011;63532;50.766;18.944;2023-04-24T09:10:24;3.55;;;1.65;;
